sensor_id;sensor_type;location;lat;lon;timestamp;P1;durP1;ratioP1;P2;durP2;ratioP2
85705;SDS011;76142;52.376;9.712;2024-02-28T00:01:37;31.38;;;14.38;;
85705;SDS011;76142;52.376;9.712;2024-02-28T00:04:03;26.20;;;13.77;;
85705;SDS011;76142;52.376;9.712;2024-02-28T00:06:29;29.77;;;15.52;;
85705;SDS011;76142;52.376;9.712;2024-02-28T00:08:54;31.23;;;14.75;;
85705;SDS011;76142;52.376;9.712;2024-02-28T00:11:20;27.15;;;13.85;;
85705;SDS011;76142;52.376;9.712;2024-02-28T00:13:46;27.52;;;14.52;;
85705;SDS011;76142;52.376;9.712;2024-02-28T00:16:12;30.40;;;14.02;;
85705;SDS011;76142;52.376;9.712;2024-02-28T00:18:38;27.63;;;14.57;;
85705;SDS011;76142;52.376;9.712;2024-02-28T00:21:03;29.60;;;14.40;;
85705;SDS011;76142;52.376;9.712;2024-02-28T00:23:29;28.48;;;14.60;;
85705;SDS011;76142;52.376;9.712;2024-02-28T00:25:56;32.05;;;15.73;;
85705;SDS011;76142;52.376;9.712;2024-02-28T00:28:21;28.05;;;15.18;;
85705;SDS011;76142;52.376;9.712;2024-02-28T00:30:47;33.88;;;15.50;;
85705;SDS011;76142;52.376;9.712;2024-02-28T00:33:13;29.25;;;15.20;;
85705;SDS011;76142;52.376;9.712;2024-02-28T00:35:39;29.10;;;15.30;;
85705;SDS011;76142;52.376;9.712;2024-02-28T00:38:05;29.13;;;14.93;;
85705;SDS011;76142;52.376;9.712;2024-02-28T00:40:30;32.10;;;15.00;;
85705;SDS011;76142;52.376;9.712;2024-02-28T00:42:59;31.63;;;15.90;;
85705;SDS011;76142;52.376;9.712;2024-02-28T00:45:25;30.13;;;15.18;;
85705;SDS011;76142;52.376;9.712;2024-02-28T00:47:50;31.67;;;16.30;;
85705;SDS011;76142;52.376;9.712;2024-02-28T00:50:16;30.65;;;15.43;;
85705;SDS011;76142;52.376;9.712;2024-02-28T00:52:41;28.65;;;14.52;;
85705;SDS011;76142;52.376;9.712;2024-02-28T00:55:07;32.00;;;15.98;;
85705;SDS011;76142;52.376;9.712;2024-02-28T00:57:33;32.58;;;15.95;;
85705;SDS011;76142;52.376;9.712;2024-02-28T00:59:59;33.33;;;16.20;;
85705;SDS011;76142;52.376;9.712;2024-02-28T01:02:25;33.65;;;15.32;;
85705;SDS011;76142;52.376;9.712;2024-02-28T01:04:50;36.47;;;16.67;;
85705;SDS011;76142;52.376;9.712;2024-02-28T01:07:16;35.78;;;17.13;;
85705;SDS011;76142;52.376;9.712;2024-02-28T01:09:42;33.90;;;16.13;;
85705;SDS011;76142;52.376;9.712;2024-02-28T01:12:08;33.60;;;16.05;;
85705;SDS011;76142;52.376;9.712;2024-02-28T01:14:34;35.10;;;16.48;;
85705;SDS011;76142;52.376;9.712;2024-02-28T01:16:59;34.58;;;16.75;;
85705;SDS011;76142;52.376;9.712;2024-02-28T01:19:25;34.30;;;16.77;;
85705;SDS011;76142;52.376;9.712;2024-02-28T01:21:51;35.53;;;17.52;;
85705;SDS011;76142;52.376;9.712;2024-02-28T01:24:16;34.33;;;16.55;;
85705;SDS011;76142;52.376;9.712;2024-02-28T01:26:42;33.72;;;16.98;;
85705;SDS011;76142;52.376;9.712;2024-02-28T01:29:08;39.08;;;17.42;;
85705;SDS011;76142;52.376;9.712;2024-02-28T01:31:33;35.63;;;17.08;;
85705;SDS011;76142;52.376;9.712;2024-02-28T01:33:59;36.05;;;17.17;;
85705;SDS011;76142;52.376;9.712;2024-02-28T01:36:25;35.72;;;16.92;;
85705;SDS011;76142;52.376;9.712;2024-02-28T01:38:51;39.22;;;18.23;;
85705;SDS011;76142;52.376;9.712;2024-02-28T01:41:17;33.15;;;16.73;;
85705;SDS011;76142;52.376;9.712;2024-02-28T01:43:42;36.17;;;17.67;;
85705;SDS011;76142;52.376;9.712;2024-02-28T01:46:18;36.22;;;17.02;;
85705;SDS011;76142;52.376;9.712;2024-02-28T01:48:51;35.78;;;17.20;;
85705;SDS011;76142;52.376;9.712;2024-02-28T01:51:18;35.22;;;18.10;;
85705;SDS011;76142;52.376;9.712;2024-02-28T01:53:44;39.42;;;18.42;;
85705;SDS011;76142;52.376;9.712;2024-02-28T01:56:11;39.25;;;17.88;;
85705;SDS011;76142;52.376;9.712;2024-02-28T01:58:39;37.38;;;17.95;;
85705;SDS011;76142;52.376;9.712;2024-02-28T02:01:05;37.28;;;17.10;;
85705;SDS011;76142;52.376;9.712;2024-02-28T02:03:32;38.70;;;18.13;;
85705;SDS011;76142;52.376;9.712;2024-02-28T02:06:00;43.85;;;19.45;;
85705;SDS011;76142;52.376;9.712;2024-02-28T02:08:27;39.45;;;18.23;;
85705;SDS011;76142;52.376;9.712;2024-02-28T02:10:52;37.33;;;17.52;;
85705;SDS011;76142;52.376;9.712;2024-02-28T02:13:18;42.15;;;18.27;;
85705;SDS011;76142;52.376;9.712;2024-02-28T02:15:44;36.35;;;17.10;;
85705;SDS011;76142;52.376;9.712;2024-02-28T02:18:09;39.95;;;18.45;;
85705;SDS011;76142;52.376;9.712;2024-02-28T02:20:35;38.60;;;18.08;;
85705;SDS011;76142;52.376;9.712;2024-02-28T02:23:07;39.22;;;18.20;;
85705;SDS011;76142;52.376;9.712;2024-02-28T02:25:33;43.38;;;18.42;;
85705;SDS011;76142;52.376;9.712;2024-02-28T02:27:59;42.92;;;18.83;;
85705;SDS011;76142;52.376;9.712;2024-02-28T02:30:24;37.30;;;18.40;;
85705;SDS011;76142;52.376;9.712;2024-02-28T02:32:50;44.42;;;19.10;;
85705;SDS011;76142;52.376;9.712;2024-02-28T02:35:15;40.78;;;19.00;;
85705;SDS011;76142;52.376;9.712;2024-02-28T02:37:44;39.20;;;18.13;;
85705;SDS011;76142;52.376;9.712;2024-02-28T02:40:13;38.92;;;18.02;;
85705;SDS011;76142;52.376;9.712;2024-02-28T02:42:40;44.25;;;18.48;;
85705;SDS011;76142;52.376;9.712;2024-02-28T02:45:06;43.95;;;18.85;;
85705;SDS011;76142;52.376;9.712;2024-02-28T02:47:31;37.05;;;18.48;;
85705;SDS011;76142;52.376;9.712;2024-02-28T02:49:57;43.50;;;19.70;;
85705;SDS011;76142;52.376;9.712;2024-02-28T02:52:23;45.45;;;19.70;;
85705;SDS011;76142;52.376;9.712;2024-02-28T02:54:48;44.72;;;19.58;;
85705;SDS011;76142;52.376;9.712;2024-02-28T02:57:14;39.72;;;18.70;;
85705;SDS011;76142;52.376;9.712;2024-02-28T02:59:40;42.88;;;19.75;;
85705;SDS011;76142;52.376;9.712;2024-02-28T03:02:05;44.17;;;20.10;;
85705;SDS011;76142;52.376;9.712;2024-02-28T03:04:31;41.72;;;19.90;;
85705;SDS011;76142;52.376;9.712;2024-02-28T03:06:56;45.53;;;19.85;;
85705;SDS011;76142;52.376;9.712;2024-02-28T03:09:22;42.20;;;19.58;;
85705;SDS011;76142;52.376;9.712;2024-02-28T03:11:48;43.85;;;19.55;;
85705;SDS011;76142;52.376;9.712;2024-02-28T03:14:13;49.58;;;20.27;;
85705;SDS011;76142;52.376;9.712;2024-02-28T03:16:42;49.10;;;20.67;;
85705;SDS011;76142;52.376;9.712;2024-02-28T03:19:09;43.47;;;20.38;;
85705;SDS011;76142;52.376;9.712;2024-02-28T03:21:35;40.88;;;18.77;;
85705;SDS011;76142;52.376;9.712;2024-02-28T03:24:01;45.75;;;19.17;;
85705;SDS011;76142;52.376;9.712;2024-02-28T03:26:27;42.97;;;19.40;;
85705;SDS011;76142;52.376;9.712;2024-02-28T03:28:53;44.13;;;19.75;;
85705;SDS011;76142;52.376;9.712;2024-02-28T03:31:18;45.88;;;19.85;;
85705;SDS011;76142;52.376;9.712;2024-02-28T03:33:44;45.70;;;20.52;;
85705;SDS011;76142;52.376;9.712;2024-02-28T03:36:11;44.70;;;18.95;;
85705;SDS011;76142;52.376;9.712;2024-02-28T03:38:37;42.88;;;18.50;;
85705;SDS011;76142;52.376;9.712;2024-02-28T03:41:03;45.15;;;19.73;;
85705;SDS011;76142;52.376;9.712;2024-02-28T03:43:30;44.33;;;19.67;;
85705;SDS011;76142;52.376;9.712;2024-02-28T03:45:56;43.47;;;19.25;;
85705;SDS011;76142;52.376;9.712;2024-02-28T03:48:21;45.42;;;19.98;;
85705;SDS011;76142;52.376;9.712;2024-02-28T03:50:47;40.65;;;18.75;;
85705;SDS011;76142;52.376;9.712;2024-02-28T03:53:13;42.45;;;18.17;;
85705;SDS011;76142;52.376;9.712;2024-02-28T03:55:38;43.50;;;19.38;;
85705;SDS011;76142;52.376;9.712;2024-02-28T03:58:04;43.17;;;19.08;;
85705;SDS011;76142;52.376;9.712;2024-02-28T04:00:33;40.58;;;18.88;;
85705;SDS011;76142;52.376;9.712;2024-02-28T04:02:59;44.58;;;19.48;;
85705;SDS011;76142;52.376;9.712;2024-02-28T04:05:25;41.42;;;18.85;;
85705;SDS011;76142;52.376;9.712;2024-02-28T04:07:51;47.95;;;20.13;;
85705;SDS011;76142;52.376;9.712;2024-02-28T04:10:16;46.17;;;19.48;;
85705;SDS011;76142;52.376;9.712;2024-02-28T04:12:43;46.08;;;20.15;;
85705;SDS011;76142;52.376;9.712;2024-02-28T04:15:10;42.08;;;18.40;;
85705;SDS011;76142;52.376;9.712;2024-02-28T04:17:37;41.22;;;19.35;;
85705;SDS011;76142;52.376;9.712;2024-02-28T04:20:03;44.00;;;18.70;;
85705;SDS011;76142;52.376;9.712;2024-02-28T04:22:33;44.55;;;19.30;;
85705;SDS011;76142;52.376;9.712;2024-02-28T04:24:58;44.58;;;19.50;;
85705;SDS011;76142;52.376;9.712;2024-02-28T04:27:24;43.17;;;19.85;;
85705;SDS011;76142;52.376;9.712;2024-02-28T04:29:50;46.05;;;20.42;;
85705;SDS011;76142;52.376;9.712;2024-02-28T04:32:15;42.65;;;20.13;;
85705;SDS011;76142;52.376;9.712;2024-02-28T04:34:41;49.05;;;20.65;;
85705;SDS011;76142;52.376;9.712;2024-02-28T04:37:06;42.50;;;19.58;;
85705;SDS011;76142;52.376;9.712;2024-02-28T04:39:32;44.65;;;19.35;;
85705;SDS011;76142;52.376;9.712;2024-02-28T04:41:58;45.92;;;20.02;;
85705;SDS011;76142;52.376;9.712;2024-02-28T04:44:23;45.08;;;19.83;;
85705;SDS011;76142;52.376;9.712;2024-02-28T04:46:49;46.72;;;19.67;;
85705;SDS011;76142;52.376;9.712;2024-02-28T04:49:14;44.03;;;18.88;;
85705;SDS011;76142;52.376;9.712;2024-02-28T04:51:40;45.05;;;19.95;;
85705;SDS011;76142;52.376;9.712;2024-02-28T04:54:06;46.58;;;20.33;;
85705;SDS011;76142;52.376;9.712;2024-02-28T04:56:31;44.25;;;19.77;;
85705;SDS011;76142;52.376;9.712;2024-02-28T04:58:57;48.13;;;19.50;;
85705;SDS011;76142;52.376;9.712;2024-02-28T05:01:22;50.20;;;21.10;;
85705;SDS011;76142;52.376;9.712;2024-02-28T05:03:48;50.67;;;21.63;;
85705;SDS011;76142;52.376;9.712;2024-02-28T05:06:13;49.53;;;20.75;;
85705;SDS011;76142;52.376;9.712;2024-02-28T05:08:39;52.33;;;20.52;;
85705;SDS011;76142;52.376;9.712;2024-02-28T05:11:05;51.47;;;20.30;;
85705;SDS011;76142;52.376;9.712;2024-02-28T05:13:30;48.42;;;21.58;;
85705;SDS011;76142;52.376;9.712;2024-02-28T05:15:56;51.42;;;21.05;;
85705;SDS011;76142;52.376;9.712;2024-02-28T05:18:21;46.92;;;20.90;;
85705;SDS011;76142;52.376;9.712;2024-02-28T05:20:47;51.85;;;21.45;;
85705;SDS011;76142;52.376;9.712;2024-02-28T05:23:13;48.08;;;20.73;;
85705;SDS011;76142;52.376;9.712;2024-02-28T05:25:38;50.28;;;22.02;;
85705;SDS011;76142;52.376;9.712;2024-02-28T05:28:04;45.20;;;20.40;;
85705;SDS011;76142;52.376;9.712;2024-02-28T05:30:30;47.72;;;20.25;;
85705;SDS011;76142;52.376;9.712;2024-02-28T05:32:55;47.80;;;20.42;;
85705;SDS011;76142;52.376;9.712;2024-02-28T05:35:21;51.13;;;20.23;;
85705;SDS011;76142;52.376;9.712;2024-02-28T05:37:47;45.05;;;19.90;;
85705;SDS011;76142;52.376;9.712;2024-02-28T05:40:12;46.58;;;19.55;;
85705;SDS011;76142;52.376;9.712;2024-02-28T05:42:38;46.50;;;20.75;;
85705;SDS011;76142;52.376;9.712;2024-02-28T05:45:05;45.47;;;20.35;;
85705;SDS011;76142;52.376;9.712;2024-02-28T05:47:31;50.08;;;20.85;;
85705;SDS011;76142;52.376;9.712;2024-02-28T05:49:57;50.33;;;21.77;;
85705;SDS011;76142;52.376;9.712;2024-02-28T05:52:23;45.28;;;20.48;;
85705;SDS011;76142;52.376;9.712;2024-02-28T05:54:52;41.60;;;19.75;;
85705;SDS011;76142;52.376;9.712;2024-02-28T05:57:18;46.03;;;20.58;;
85705;SDS011;76142;52.376;9.712;2024-02-28T05:59:44;44.90;;;19.77;;
85705;SDS011;76142;52.376;9.712;2024-02-28T06:02:09;49.53;;;21.00;;
85705;SDS011;76142;52.376;9.712;2024-02-28T06:04:35;45.45;;;20.25;;
85705;SDS011;76142;52.376;9.712;2024-02-28T06:07:01;44.65;;;20.80;;
85705;SDS011;76142;52.376;9.712;2024-02-28T06:09:27;48.40;;;19.60;;
85705;SDS011;76142;52.376;9.712;2024-02-28T06:11:52;52.15;;;21.38;;
85705;SDS011;76142;52.376;9.712;2024-02-28T06:14:18;49.28;;;21.67;;
85705;SDS011;76142;52.376;9.712;2024-02-28T06:16:47;144.25;;;54.75;;
85705;SDS011;76142;52.376;9.712;2024-02-28T06:19:13;73.38;;;30.85;;
85705;SDS011;76142;52.376;9.712;2024-02-28T06:21:38;80.35;;;31.02;;
85705;SDS011;76142;52.376;9.712;2024-02-28T06:24:04;64.82;;;25.92;;
85705;SDS011;76142;52.376;9.712;2024-02-28T06:26:30;53.92;;;22.55;;
85705;SDS011;76142;52.376;9.712;2024-02-28T06:28:56;50.38;;;21.02;;
85705;SDS011;76142;52.376;9.712;2024-02-28T06:31:26;53.67;;;21.52;;
85705;SDS011;76142;52.376;9.712;2024-02-28T06:33:56;52.30;;;21.42;;
85705;SDS011;76142;52.376;9.712;2024-02-28T06:36:22;50.75;;;21.63;;
85705;SDS011;76142;52.376;9.712;2024-02-28T06:38:48;52.67;;;22.13;;
85705;SDS011;76142;52.376;9.712;2024-02-28T06:41:13;51.17;;;22.02;;
85705;SDS011;76142;52.376;9.712;2024-02-28T06:43:39;54.05;;;22.17;;
85705;SDS011;76142;52.376;9.712;2024-02-28T06:46:05;51.35;;;22.52;;
85705;SDS011;76142;52.376;9.712;2024-02-28T06:48:30;58.03;;;23.40;;
85705;SDS011;76142;52.376;9.712;2024-02-28T06:50:56;53.10;;;22.63;;
85705;SDS011;76142;52.376;9.712;2024-02-28T06:53:23;54.45;;;21.77;;
85705;SDS011;76142;52.376;9.712;2024-02-28T06:55:48;57.40;;;24.35;;
85705;SDS011;76142;52.376;9.712;2024-02-28T06:58:15;53.25;;;23.00;;
85705;SDS011;76142;52.376;9.712;2024-02-28T07:00:40;59.28;;;24.20;;
85705;SDS011;76142;52.376;9.712;2024-02-28T07:03:06;54.30;;;23.15;;
85705;SDS011;76142;52.376;9.712;2024-02-28T07:05:32;59.60;;;24.83;;
85705;SDS011;76142;52.376;9.712;2024-02-28T07:07:58;55.97;;;22.75;;
85705;SDS011;76142;52.376;9.712;2024-02-28T07:10:25;55.25;;;23.50;;
85705;SDS011;76142;52.376;9.712;2024-02-28T07:12:51;54.58;;;24.02;;
85705;SDS011;76142;52.376;9.712;2024-02-28T07:15:16;57.90;;;24.33;;
85705;SDS011;76142;52.376;9.712;2024-02-28T07:17:46;56.17;;;23.70;;
85705;SDS011;76142;52.376;9.712;2024-02-28T07:20:12;55.35;;;23.38;;
85705;SDS011;76142;52.376;9.712;2024-02-28T07:22:38;57.30;;;24.77;;
85705;SDS011;76142;52.376;9.712;2024-02-28T07:25:04;57.67;;;24.13;;
85705;SDS011;76142;52.376;9.712;2024-02-28T07:27:32;62.28;;;23.50;;
85705;SDS011;76142;52.376;9.712;2024-02-28T07:29:58;56.40;;;22.98;;
85705;SDS011;76142;52.376;9.712;2024-02-28T07:32:23;55.13;;;23.73;;
85705;SDS011;76142;52.376;9.712;2024-02-28T07:34:49;54.38;;;23.58;;
85705;SDS011;76142;52.376;9.712;2024-02-28T07:37:15;54.50;;;23.58;;
85705;SDS011;76142;52.376;9.712;2024-02-28T07:39:41;55.75;;;23.83;;
85705;SDS011;76142;52.376;9.712;2024-02-28T07:42:06;57.05;;;24.25;;
85705;SDS011;76142;52.376;9.712;2024-02-28T07:44:32;60.38;;;24.90;;
85705;SDS011;76142;52.376;9.712;2024-02-28T07:46:58;57.33;;;25.40;;
85705;SDS011;76142;52.376;9.712;2024-02-28T07:49:24;56.20;;;25.50;;
85705;SDS011;76142;52.376;9.712;2024-02-28T07:51:50;58.05;;;24.15;;
85705;SDS011;76142;52.376;9.712;2024-02-28T07:54:16;60.40;;;25.85;;
85705;SDS011;76142;52.376;9.712;2024-02-28T07:56:43;59.47;;;25.80;;
85705;SDS011;76142;52.376;9.712;2024-02-28T07:59:09;60.88;;;25.10;;
85705;SDS011;76142;52.376;9.712;2024-02-28T08:01:35;57.38;;;24.23;;
85705;SDS011;76142;52.376;9.712;2024-02-28T08:04:04;60.38;;;25.10;;
85705;SDS011;76142;52.376;9.712;2024-02-28T08:06:30;65.20;;;25.75;;
85705;SDS011;76142;52.376;9.712;2024-02-28T08:08:58;65.40;;;26.70;;
85705;SDS011;76142;52.376;9.712;2024-02-28T08:11:24;60.15;;;24.70;;
85705;SDS011;76142;52.376;9.712;2024-02-28T08:13:50;62.25;;;26.15;;
85705;SDS011;76142;52.376;9.712;2024-02-28T08:16:16;62.00;;;25.75;;
85705;SDS011;76142;52.376;9.712;2024-02-28T08:18:41;58.88;;;25.23;;
85705;SDS011;76142;52.376;9.712;2024-02-28T08:21:08;54.85;;;23.65;;
85705;SDS011;76142;52.376;9.712;2024-02-28T08:23:34;55.20;;;24.73;;
85705;SDS011;76142;52.376;9.712;2024-02-28T08:25:59;59.92;;;24.63;;
85705;SDS011;76142;52.376;9.712;2024-02-28T08:28:25;54.08;;;24.50;;
85705;SDS011;76142;52.376;9.712;2024-02-28T08:30:51;57.13;;;24.08;;
85705;SDS011;76142;52.376;9.712;2024-02-28T08:33:16;54.13;;;22.92;;
85705;SDS011;76142;52.376;9.712;2024-02-28T08:35:42;55.13;;;23.20;;
85705;SDS011;76142;52.376;9.712;2024-02-28T08:38:08;58.17;;;23.55;;
85705;SDS011;76142;52.376;9.712;2024-02-28T08:40:34;57.95;;;23.92;;
85705;SDS011;76142;52.376;9.712;2024-02-28T08:42:59;57.30;;;24.55;;
85705;SDS011;76142;52.376;9.712;2024-02-28T08:45:25;56.90;;;24.75;;
85705;SDS011;76142;52.376;9.712;2024-02-28T08:47:51;60.83;;;23.35;;
85705;SDS011;76142;52.376;9.712;2024-02-28T08:50:17;56.90;;;24.42;;
85705;SDS011;76142;52.376;9.712;2024-02-28T08:52:43;55.35;;;23.30;;
85705;SDS011;76142;52.376;9.712;2024-02-28T08:55:09;56.08;;;23.75;;
85705;SDS011;76142;52.376;9.712;2024-02-28T08:57:35;56.40;;;23.55;;
85705;SDS011;76142;52.376;9.712;2024-02-28T09:00:01;61.33;;;25.48;;
85705;SDS011;76142;52.376;9.712;2024-02-28T09:02:26;55.90;;;24.13;;
85705;SDS011;76142;52.376;9.712;2024-02-28T09:04:52;58.78;;;25.40;;
85705;SDS011;76142;52.376;9.712;2024-02-28T09:07:21;53.33;;;23.33;;
85705;SDS011;76142;52.376;9.712;2024-02-28T09:09:47;48.08;;;22.10;;
85705;SDS011;76142;52.376;9.712;2024-02-28T09:12:14;52.13;;;23.60;;
85705;SDS011;76142;52.376;9.712;2024-02-28T09:14:40;52.78;;;22.55;;
85705;SDS011;76142;52.376;9.712;2024-02-28T09:17:05;47.63;;;22.23;;
85705;SDS011;76142;52.376;9.712;2024-02-28T09:19:31;50.05;;;21.52;;
85705;SDS011;76142;52.376;9.712;2024-02-28T09:21:57;49.65;;;22.52;;
85705;SDS011;76142;52.376;9.712;2024-02-28T09:24:24;49.20;;;22.75;;
85705;SDS011;76142;52.376;9.712;2024-02-28T09:26:50;47.42;;;21.83;;
85705;SDS011;76142;52.376;9.712;2024-02-28T09:29:15;56.78;;;22.38;;
85705;SDS011;76142;52.376;9.712;2024-02-28T09:31:41;49.50;;;22.52;;
85705;SDS011;76142;52.376;9.712;2024-02-28T09:34:07;48.92;;;21.50;;
85705;SDS011;76142;52.376;9.712;2024-02-28T09:36:41;53.85;;;22.95;;
85705;SDS011;76142;52.376;9.712;2024-02-28T09:39:07;46.35;;;21.77;;
85705;SDS011;76142;52.376;9.712;2024-02-28T09:41:33;48.00;;;21.27;;
85705;SDS011;76142;52.376;9.712;2024-02-28T09:43:59;46.20;;;20.95;;
85705;SDS011;76142;52.376;9.712;2024-02-28T09:46:27;44.85;;;20.90;;
85705;SDS011;76142;52.376;9.712;2024-02-28T09:48:54;48.03;;;20.70;;
85705;SDS011;76142;52.376;9.712;2024-02-28T09:51:21;42.65;;;20.75;;
85705;SDS011;76142;52.376;9.712;2024-02-28T09:53:49;45.38;;;20.85;;
85705;SDS011;76142;52.376;9.712;2024-02-28T09:56:16;40.05;;;20.08;;
85705;SDS011;76142;52.376;9.712;2024-02-28T09:58:41;44.10;;;19.70;;
85705;SDS011;76142;52.376;9.712;2024-02-28T10:01:08;40.25;;;20.00;;
85705;SDS011;76142;52.376;9.712;2024-02-28T10:03:36;41.03;;;19.90;;
85705;SDS011;76142;52.376;9.712;2024-02-28T10:06:04;40.13;;;20.90;;
85705;SDS011;76142;52.376;9.712;2024-02-28T10:08:30;44.65;;;20.38;;
85705;SDS011;76142;52.376;9.712;2024-02-28T10:10:57;45.50;;;21.05;;
85705;SDS011;76142;52.376;9.712;2024-02-28T10:13:23;45.45;;;21.95;;
85705;SDS011;76142;52.376;9.712;2024-02-28T10:15:49;48.90;;;21.65;;
85705;SDS011;76142;52.376;9.712;2024-02-28T10:18:15;51.45;;;22.90;;
85705;SDS011;76142;52.376;9.712;2024-02-28T10:20:41;46.72;;;21.95;;
85705;SDS011;76142;52.376;9.712;2024-02-28T10:23:07;50.95;;;22.50;;
85705;SDS011;76142;52.376;9.712;2024-02-28T10:25:42;53.28;;;24.55;;
85705;SDS011;76142;52.376;9.712;2024-02-28T10:28:12;54.63;;;24.40;;
85705;SDS011;76142;52.376;9.712;2024-02-28T10:30:42;51.83;;;22.35;;
85705;SDS011;76142;52.376;9.712;2024-02-28T10:33:12;48.28;;;21.98;;
85705;SDS011;76142;52.376;9.712;2024-02-28T10:35:39;48.22;;;22.42;;
85705;SDS011;76142;52.376;9.712;2024-02-28T10:38:07;58.80;;;23.92;;
85705;SDS011;76142;52.376;9.712;2024-02-28T10:40:38;53.65;;;22.88;;
85705;SDS011;76142;52.376;9.712;2024-02-28T10:43:08;52.47;;;23.50;;
85705;SDS011;76142;52.376;9.712;2024-02-28T10:45:38;52.63;;;23.90;;
85705;SDS011;76142;52.376;9.712;2024-02-28T10:48:04;51.20;;;22.63;;
85705;SDS011;76142;52.376;9.712;2024-02-28T10:50:31;59.85;;;24.50;;
85705;SDS011;76142;52.376;9.712;2024-02-28T10:52:59;63.05;;;25.27;;
85705;SDS011;76142;52.376;9.712;2024-02-28T10:55:29;55.50;;;23.77;;
85705;SDS011;76142;52.376;9.712;2024-02-28T10:58:17;62.42;;;25.80;;
85705;SDS011;76142;52.376;9.712;2024-02-28T11:00:47;63.17;;;25.15;;
85705;SDS011;76142;52.376;9.712;2024-02-28T11:03:15;54.97;;;23.30;;
85705;SDS011;76142;52.376;9.712;2024-02-28T11:05:43;56.95;;;24.85;;
85705;SDS011;76142;52.376;9.712;2024-02-28T11:08:22;55.00;;;24.15;;
85705;SDS011;76142;52.376;9.712;2024-02-28T11:10:59;56.45;;;24.80;;
85705;SDS011;76142;52.376;9.712;2024-02-28T11:13:29;56.22;;;24.48;;
85705;SDS011;76142;52.376;9.712;2024-02-28T11:16:06;54.25;;;24.05;;
85705;SDS011;76142;52.376;9.712;2024-02-28T11:18:32;58.08;;;24.00;;
85705;SDS011;76142;52.376;9.712;2024-02-28T11:20:58;50.72;;;23.17;;
85705;SDS011;76142;52.376;9.712;2024-02-28T11:23:24;56.20;;;23.50;;
85705;SDS011;76142;52.376;9.712;2024-02-28T11:25:51;52.10;;;22.88;;
85705;SDS011;76142;52.376;9.712;2024-02-28T11:28:17;56.75;;;23.50;;
85705;SDS011;76142;52.376;9.712;2024-02-28T11:30:47;53.95;;;23.08;;
85705;SDS011;76142;52.376;9.712;2024-02-28T11:33:13;54.60;;;23.00;;
85705;SDS011;76142;52.376;9.712;2024-02-28T11:35:39;53.05;;;22.33;;
85705;SDS011;76142;52.376;9.712;2024-02-28T11:38:06;55.67;;;23.05;;
85705;SDS011;76142;52.376;9.712;2024-02-28T11:40:31;57.53;;;23.75;;
85705;SDS011;76142;52.376;9.712;2024-02-28T11:42:57;58.42;;;23.80;;
85705;SDS011;76142;52.376;9.712;2024-02-28T11:45:24;57.08;;;24.52;;
85705;SDS011;76142;52.376;9.712;2024-02-28T11:47:50;57.30;;;24.67;;
85705;SDS011;76142;52.376;9.712;2024-02-28T11:50:16;54.83;;;23.70;;
85705;SDS011;76142;52.376;9.712;2024-02-28T11:52:43;55.85;;;22.52;;
85705;SDS011;76142;52.376;9.712;2024-02-28T11:55:09;53.05;;;23.38;;
85705;SDS011;76142;52.376;9.712;2024-02-28T11:57:35;51.67;;;21.80;;
85705;SDS011;76142;52.376;9.712;2024-02-28T12:00:08;55.97;;;23.15;;
85705;SDS011;76142;52.376;9.712;2024-02-28T12:02:38;55.17;;;23.42;;
85705;SDS011;76142;52.376;9.712;2024-02-28T12:05:03;57.50;;;24.33;;
85705;SDS011;76142;52.376;9.712;2024-02-28T12:07:30;54.97;;;23.27;;
85705;SDS011;76142;52.376;9.712;2024-02-28T12:09:57;50.55;;;22.88;;
85705;SDS011;76142;52.376;9.712;2024-02-28T12:12:23;52.22;;;22.30;;
85705;SDS011;76142;52.376;9.712;2024-02-28T12:14:49;51.65;;;22.45;;
85705;SDS011;76142;52.376;9.712;2024-02-28T12:17:15;49.80;;;23.00;;
85705;SDS011;76142;52.376;9.712;2024-02-28T12:19:41;48.33;;;21.73;;
85705;SDS011;76142;52.376;9.712;2024-02-28T12:22:07;55.33;;;23.13;;
85705;SDS011;76142;52.376;9.712;2024-02-28T12:24:33;45.65;;;20.50;;
85705;SDS011;76142;52.376;9.712;2024-02-28T12:26:59;49.75;;;22.63;;
85705;SDS011;76142;52.376;9.712;2024-02-28T12:29:25;51.67;;;23.00;;
85705;SDS011;76142;52.376;9.712;2024-02-28T12:31:51;49.63;;;22.23;;
85705;SDS011;76142;52.376;9.712;2024-02-28T12:34:17;51.95;;;22.63;;
85705;SDS011;76142;52.376;9.712;2024-02-28T12:36:42;49.13;;;21.50;;
85705;SDS011;76142;52.376;9.712;2024-02-28T12:39:08;55.05;;;22.58;;
85705;SDS011;76142;52.376;9.712;2024-02-28T12:41:39;55.63;;;24.65;;
85705;SDS011;76142;52.376;9.712;2024-02-28T12:44:05;56.15;;;24.17;;
85705;SDS011;76142;52.376;9.712;2024-02-28T12:46:31;51.45;;;22.42;;
85705;SDS011;76142;52.376;9.712;2024-02-28T12:49:00;51.80;;;21.92;;
85705;SDS011;76142;52.376;9.712;2024-02-28T12:51:44;47.42;;;21.50;;
85705;SDS011;76142;52.376;9.712;2024-02-28T12:54:11;55.30;;;21.77;;
85705;SDS011;76142;52.376;9.712;2024-02-28T12:56:39;50.95;;;21.52;;
85705;SDS011;76142;52.376;9.712;2024-02-28T12:59:07;49.33;;;22.58;;
85705;SDS011;76142;52.376;9.712;2024-02-28T13:01:34;52.90;;;22.30;;
85705;SDS011;76142;52.376;9.712;2024-02-28T13:03:59;54.53;;;23.27;;
85705;SDS011;76142;52.376;9.712;2024-02-28T13:06:25;57.65;;;24.15;;
85705;SDS011;76142;52.376;9.712;2024-02-28T13:08:51;53.42;;;23.08;;
85705;SDS011;76142;52.376;9.712;2024-02-28T13:11:20;56.15;;;23.10;;
85705;SDS011;76142;52.376;9.712;2024-02-28T13:13:48;58.20;;;23.30;;
85705;SDS011;76142;52.376;9.712;2024-02-28T13:16:15;51.13;;;21.75;;
85705;SDS011;76142;52.376;9.712;2024-02-28T13:18:41;50.95;;;22.13;;
85705;SDS011;76142;52.376;9.712;2024-02-28T13:21:07;50.95;;;22.15;;
85705;SDS011;76142;52.376;9.712;2024-02-28T13:23:34;47.88;;;21.23;;
85705;SDS011;76142;52.376;9.712;2024-02-28T13:26:00;50.00;;;22.33;;
85705;SDS011;76142;52.376;9.712;2024-02-28T13:28:26;56.35;;;22.58;;
85705;SDS011;76142;52.376;9.712;2024-02-28T13:31:01;53.10;;;21.88;;
85705;SDS011;76142;52.376;9.712;2024-02-28T13:33:29;52.17;;;22.42;;
85705;SDS011;76142;52.376;9.712;2024-02-28T13:35:54;48.20;;;21.42;;
85705;SDS011;76142;52.376;9.712;2024-02-28T13:38:20;52.88;;;22.75;;
85705;SDS011;76142;52.376;9.712;2024-02-28T13:40:49;52.90;;;21.65;;
85705;SDS011;76142;52.376;9.712;2024-02-28T13:43:15;50.42;;;21.15;;
85705;SDS011;76142;52.376;9.712;2024-02-28T13:45:48;45.88;;;21.55;;
85705;SDS011;76142;52.376;9.712;2024-02-28T13:50:43;43.13;;;19.85;;
85705;SDS011;76142;52.376;9.712;2024-02-28T13:53:09;38.15;;;18.13;;
85705;SDS011;76142;52.376;9.712;2024-02-28T13:55:35;42.78;;;19.00;;
85705;SDS011;76142;52.376;9.712;2024-02-28T13:58:00;39.70;;;18.83;;
85705;SDS011;76142;52.376;9.712;2024-02-28T14:00:26;37.97;;;18.58;;
85705;SDS011;76142;52.376;9.712;2024-02-28T14:02:52;39.35;;;19.35;;
85705;SDS011;76142;52.376;9.712;2024-02-28T14:05:18;42.63;;;19.48;;
85705;SDS011;76142;52.376;9.712;2024-02-28T14:07:43;39.67;;;19.73;;
85705;SDS011;76142;52.376;9.712;2024-02-28T14:10:09;38.78;;;18.63;;
85705;SDS011;76142;52.376;9.712;2024-02-28T14:12:36;34.70;;;17.45;;
85705;SDS011;76142;52.376;9.712;2024-02-28T14:15:03;38.35;;;19.10;;
85705;SDS011;76142;52.376;9.712;2024-02-28T14:17:30;40.38;;;18.75;;
85705;SDS011;76142;52.376;9.712;2024-02-28T14:19:56;39.28;;;19.02;;